Station Historical Data
Daily Summary for February 12, 2018 Units:  English    Metric   Both
« Previous Day
Next Day »
Daily Weekly Monthly Yearly Custom
  High: Low: Average:
Temperature: 64.2 °F 30.6 °F 46.5 °F
Dew Point: 62.4 °F 23.1 °F 37.5 °F
Humidity: 95 % 48 % 72 %
Wind Speed: 9.0 mph 0.0 mph 1.7 mph
Wind Gust: 15.0 mph - -
Wind:- - SW
Pressure: 30.73 in 29.97 in -
Precipitation: 0.06 in    
Historical Graphs
 
 
Tabular Data for February 12, 2018
Time Temperature Dew Point Pressure Wind Wind Speed Wind Gust Humidity Rainfall Rate (Hourly)
00:03 64.2 °F 62.4 °F 29.97 in SSW 7.0 mph 7.0 mph 94 % 0.00 in
00:08 64.2 °F 62.4 °F 29.97 in SSW 1.0 mph 7.0 mph 94 % 0.00 in
00:13 64.1 °F 62.0 °F 29.98 in Calm   7.0 mph 93 % 0.00 in
00:18 64.0 °F 61.9 °F 29.98 in Calm   7.0 mph 93 % 0.00 in
00:23 63.9 °F 61.8 °F 29.98 in SSW 3.0 mph 7.0 mph 93 % 0.00 in
00:28 63.8 °F 61.7 °F 29.99 in Calm   6.0 mph 93 % 0.00 in
00:33 63.8 °F 61.7 °F 29.99 in Calm   6.0 mph 93 % 0.00 in
00:38 63.8 °F 61.7 °F 29.99 in Calm   6.0 mph 93 % 0.00 in
00:43 63.7 °F 61.6 °F 29.99 in SSW 1.0 mph 6.0 mph 93 % 0.00 in
00:48 63.6 °F 61.5 °F 30.00 in SSW 3.0 mph 6.0 mph 93 % 0.00 in
00:53 63.6 °F 61.8 °F 30.00 in Calm   6.0 mph 94 % 0.00 in
00:58 63.5 °F 61.7 °F 30.00 in SSW 1.0 mph 6.0 mph 94 % 0.00 in
01:03 63.4 °F 61.6 °F 30.00 in SW 1.0 mph 6.0 mph 94 % 0.00 in
01:08 63.5 °F 61.7 °F 30.01 in Calm   6.0 mph 94 % 0.00 in
01:13 63.5 °F 61.7 °F 30.01 in SW 3.0 mph 6.0 mph 94 % 0.00 in
01:18 63.5 °F 61.7 °F 30.01 in SSW 5.0 mph 6.0 mph 94 % 0.00 in
01:23 63.5 °F 61.7 °F 30.02 in SSW 3.0 mph 6.0 mph 94 % 0.00 in
01:28 63.4 °F 61.6 °F 30.03 in Calm   6.0 mph 94 % 0.00 in
01:33 63.2 °F 61.4 °F 30.03 in WSW 1.0 mph 6.0 mph 94 % 0.00 in
01:38 63.1 °F 61.3 °F 30.03 in Calm   6.0 mph 94 % 0.00 in
01:43 62.9 °F 61.1 °F 30.04 in WSW 4.0 mph 6.0 mph 94 % 0.00 in
01:48 62.9 °F 61.1 °F 30.04 in Calm   4.0 mph 94 % 0.00 in
01:53 62.8 °F 61.0 °F 30.05 in Calm   4.0 mph 94 % 0.00 in
01:58 62.7 °F 60.9 °F 30.05 in Calm   4.0 mph 94 % 0.00 in
02:03 62.7 °F 60.9 °F 30.05 in WSW 1.0 mph 5.0 mph 94 % 0.00 in
02:08 62.6 °F 61.1 °F 30.05 in Calm   5.0 mph 95 % 0.00 in
02:13 62.5 °F 61.0 °F 30.06 in Calm   5.0 mph 95 % 0.01 in
02:18 62.4 °F 60.9 °F 30.06 in WSW 3.0 mph 5.0 mph 95 % 0.01 in
02:23 62.2 °F 60.7 °F 30.06 in Calm   5.0 mph 95 % 0.01 in
02:28 62.0 °F 60.5 °F 30.07 in WSW 1.0 mph 6.0 mph 95 % 0.01 in
02:33 61.6 °F 60.1 °F 30.07 in WNW 1.0 mph 9.0 mph 95 % 0.01 in
02:38 61.4 °F 59.6 °F 30.07 in Calm   9.0 mph 94 % 0.01 in
02:43 61.1 °F 59.3 °F 30.07 in NW 1.0 mph 9.0 mph 94 % 0.01 in
02:48 60.9 °F 59.1 °F 30.07 in NW 2.0 mph 9.0 mph 94 % 0.01 in
02:53 60.5 °F 58.4 °F 30.08 in Calm   7.0 mph 93 % 0.01 in
02:58 60.0 °F 57.3 °F 30.08 in West 5.0 mph 6.0 mph 91 % 0.01 in
03:03 59.6 °F 56.3 °F 30.09 in West 1.0 mph 6.0 mph 89 % 0.01 in
03:08 59.4 °F 55.2 °F 30.09 in WSW 3.0 mph 11.0 mph 86 % 0.01 in
03:13 59.3 °F 54.8 °F 30.09 in West 4.0 mph 11.0 mph 85 % 0.00 in
03:18 59.1 °F 54.3 °F 30.09 in WSW 6.0 mph 11.0 mph 84 % 0.00 in
03:23 59.0 °F 54.8 °F 30.09 in SW 6.0 mph 11.0 mph 86 % 0.00 in
03:28 58.8 °F 53.7 °F 30.10 in NW 2.0 mph 11.0 mph 83 % 0.00 in
03:33 58.6 °F 53.5 °F 30.09 in NE 3.0 mph 11.0 mph 83 % 0.00 in
03:38 58.4 °F 53.3 °F 30.09 in SW 2.0 mph 8.0 mph 83 % 0.00 in
03:43 58.2 °F 52.4 °F 30.10 in NW 1.0 mph 8.0 mph 81 % 0.00 in
03:48 58.1 °F 52.3 °F 30.10 in West 1.0 mph 8.0 mph 81 % 0.00 in
03:53 58.0 °F 52.2 °F 30.11 in Calm   7.0 mph 81 % 0.00 in
03:58 57.8 °F 52.4 °F 30.10 in Calm   7.0 mph 82 % 0.00 in
04:03 57.6 °F 51.9 °F 30.11 in WSW 2.0 mph 7.0 mph 81 % 0.00 in
04:08 57.4 °F 51.0 °F 30.11 in Calm   8.0 mph 79 % 0.00 in
04:13 57.3 °F 50.9 °F 30.11 in Calm   8.0 mph 79 % 0.00 in
04:18 57.1 °F 50.7 °F 30.12 in WNW 1.0 mph 8.0 mph 79 % 0.00 in
04:23 56.9 °F 50.5 °F 30.12 in Calm   8.0 mph 79 % 0.00 in
04:28 56.7 °F 50.3 °F 30.13 in West 2.0 mph 6.0 mph 79 % 0.00 in
04:33 56.4 °F 50.0 °F 30.14 in Calm   10.0 mph 79 % 0.00 in
04:38 56.2 °F 49.8 °F 30.14 in WNW 1.0 mph 10.0 mph 79 % 0.00 in
04:43 55.8 °F 49.1 °F 30.15 in WNW 9.0 mph 10.0 mph 78 % 0.00 in
04:48 55.4 °F 48.4 °F 30.15 in North 2.0 mph 10.0 mph 77 % 0.00 in
04:53 55.1 °F 48.1 °F 30.16 in Calm   10.0 mph 77 % 0.00 in
04:58 54.8 °F 47.8 °F 30.15 in Calm   10.0 mph 77 % 0.00 in
05:03 54.6 °F 47.6 °F 30.16 in North 7.0 mph 9.0 mph 77 % 0.00 in
05:08 54.4 °F 47.4 °F 30.16 in WNW 2.0 mph 9.0 mph 77 % 0.00 in
05:13 54.2 °F 47.2 °F 30.16 in North 2.0 mph 9.0 mph 77 % 0.00 in
05:18 54.0 °F 47.4 °F 30.16 in WSW 3.0 mph 9.0 mph 78 % 0.00 in
05:23 53.8 °F 47.2 °F 30.16 in WNW 1.0 mph 7.0 mph 78 % 0.00 in
05:28 53.7 °F 47.1 °F 30.17 in WNW 3.0 mph 7.0 mph 78 % 0.00 in
05:33 53.4 °F 46.4 °F 30.18 in WSW 3.0 mph 9.0 mph 77 % 0.00 in
05:38 53.2 °F 46.2 °F 30.18 in NW 3.0 mph 9.0 mph 77 % 0.00 in
05:43 52.8 °F 45.5 °F 30.18 in North 2.0 mph 12.0 mph 76 % 0.00 in
05:48 52.3 °F 45.0 °F 30.19 in West 4.0 mph 12.0 mph 76 % 0.00 in
05:53 51.9 °F 44.6 °F 30.20 in NW 4.0 mph 12.0 mph 76 % 0.00 in
05:58 51.4 °F 44.5 °F 30.20 in West 3.0 mph 12.0 mph 77 % 0.00 in
06:03 50.8 °F 43.6 °F 30.20 in North 2.0 mph 12.0 mph 76 % 0.00 in
06:08 50.3 °F 43.4 °F 30.21 in North 6.0 mph 11.0 mph 77 % 0.00 in
06:13 49.8 °F 43.3 °F 30.21 in North 5.0 mph 11.0 mph 78 % 0.00 in
06:18 49.5 °F 42.6 °F 30.22 in WNW 9.0 mph 11.0 mph 77 % 0.00 in
06:23 49.2 °F 42.0 °F 30.23 in NNE 5.0 mph 15.0 mph 76 % 0.00 in
06:28 48.7 °F 41.2 °F 30.23 in WNW 6.0 mph 15.0 mph 75 % 0.00 in
06:33 48.5 °F 41.3 °F 30.24 in WNW 2.0 mph 15.0 mph 76 % 0.00 in
06:38 48.2 °F 41.4 °F 30.24 in WNW 2.0 mph 15.0 mph 77 % 0.00 in
06:43 47.8 °F 41.3 °F 30.24 in NNE 3.0 mph 10.0 mph 78 % 0.00 in
06:48 47.4 °F 41.3 °F 30.24 in NW 4.0 mph 13.0 mph 79 % 0.00 in
06:53 46.8 °F 41.3 °F 30.25 in West 2.0 mph 13.0 mph 81 % 0.00 in
06:58 46.4 °F 40.9 °F 30.26 in North 1.0 mph 13.0 mph 81 % 0.01 in
07:03 46.2 °F 41.0 °F 30.25 in NW 5.0 mph 13.0 mph 82 % 0.01 in
07:08 46.0 °F 40.5 °F 30.26 in NW 2.0 mph 11.0 mph 81 % 0.01 in
07:13 45.9 °F 40.7 °F 30.26 in NE 3.0 mph 12.0 mph 82 % 0.01 in
07:18 45.8 °F 40.9 °F 30.28 in WSW 1.0 mph 12.0 mph 83 % 0.01 in
07:23 45.6 °F 41.0 °F 30.29 in Calm   12.0 mph 84 % 0.01 in
07:28 45.4 °F 40.8 °F 30.29 in NW 5.0 mph 12.0 mph 84 % 0.01 in
07:33 45.2 °F 40.9 °F 30.29 in WNW 3.0 mph 9.0 mph 85 % 0.01 in
07:38 44.9 °F 40.7 °F 30.29 in WNW 6.0 mph 11.0 mph 85 % 0.02 in
07:43 44.5 °F 40.3 °F 30.30 in NW 2.0 mph 11.0 mph 85 % 0.02 in
07:48 44.1 °F 40.2 °F 30.30 in North 5.0 mph 11.0 mph 86 % 0.02 in
07:53 43.9 °F 40.0 °F 30.31 in North 2.0 mph 11.0 mph 86 % 0.02 in
07:58 43.7 °F 39.8 °F 30.31 in West 3.0 mph 9.0 mph 86 % 0.01 in
08:03 43.5 °F 39.6 °F 30.32 in West 5.0 mph 10.0 mph 86 % 0.01 in
08:08 43.4 °F 39.2 °F 30.32 in Calm   10.0 mph 85 % 0.01 in
08:13 43.3 °F 39.1 °F 30.33 in North 2.0 mph 10.0 mph 85 % 0.01 in
08:18 43.3 °F 39.1 °F 30.33 in NW 2.0 mph 10.0 mph 85 % 0.01 in
08:23 43.3 °F 39.1 °F 30.33 in Calm   8.0 mph 85 % 0.01 in
08:28 43.3 °F 39.1 °F 30.34 in West 2.0 mph 8.0 mph 85 % 0.01 in
08:33 43.3 °F 38.8 °F 30.35 in NW 2.0 mph 8.0 mph 84 % 0.01 in
08:38 43.3 °F 38.8 °F 30.35 in WNW 2.0 mph 8.0 mph 84 % 0.00 in
08:43 43.2 °F 38.4 °F 30.35 in WNW 3.0 mph 8.0 mph 83 % 0.00 in
08:48 43.1 °F 38.0 °F 30.35 in North 3.0 mph 8.0 mph 82 % 0.00 in
08:53 43.0 °F 37.6 °F 30.35 in WNW 4.0 mph 9.0 mph 81 % 0.00 in
08:58 42.9 °F 37.5 °F 30.36 in WNW 1.0 mph 9.0 mph 81 % 0.00 in
09:03 42.7 °F 37.3 °F 30.36 in NW 7.0 mph 10.0 mph 81 % 0.00 in
09:08 42.4 °F 37.3 °F 30.36 in WNW 6.0 mph 10.0 mph 82 % 0.01 in
09:13 42.2 °F 36.8 °F 30.36 in North 5.0 mph 14.0 mph 81 % 0.01 in
09:18 42.0 °F 36.9 °F 30.37 in Calm   14.0 mph 82 % 0.01 in
09:23 41.9 °F 36.8 °F 30.38 in WNW 1.0 mph 14.0 mph 82 % 0.01 in
09:28 42.0 °F 37.2 °F 30.38 in WNW 1.0 mph 14.0 mph 83 % 0.01 in
09:33 42.0 °F 37.2 °F 30.38 in North 1.0 mph 11.0 mph 83 % 0.01 in
09:38 41.9 °F 37.1 °F 30.39 in North 3.0 mph 9.0 mph 83 % 0.01 in
09:43 41.8 °F 37.3 °F 30.40 in Calm   8.0 mph 84 % 0.01 in
09:48 41.7 °F 37.2 °F 30.40 in NNE 1.0 mph 8.0 mph 84 % 0.01 in
09:53 41.7 °F 37.5 °F 30.40 in Calm   7.0 mph 85 % 0.01 in
09:58 41.7 °F 37.5 °F 30.40 in North 2.0 mph 7.0 mph 85 % 0.01 in
10:03 41.7 °F 37.8 °F 30.40 in NW 4.0 mph 5.0 mph 86 % 0.00 in
10:08 41.8 °F 37.9 °F 30.41 in West 1.0 mph 5.0 mph 86 % 0.01 in
10:13 41.6 °F 38.0 °F 30.41 in NW 2.0 mph 8.0 mph 87 % 0.01 in
10:18 41.5 °F 37.9 °F 30.42 in Calm   8.0 mph 87 % 0.01 in
10:23 41.4 °F 37.8 °F 30.42 in Calm   8.0 mph 87 % 0.01 in
10:28 41.4 °F 37.8 °F 30.43 in WSW 1.0 mph 8.0 mph 87 % 0.01 in
10:33 41.3 °F 37.4 °F 30.42 in North 5.0 mph 8.0 mph 86 % 0.01 in
10:38 40.9 °F 37.9 °F 30.42 in North 3.0 mph 9.0 mph 89 % 0.01 in
10:43 40.7 °F 35.9 °F 30.43 in North 3.0 mph 10.0 mph 83 % 0.01 in
10:48 40.7 °F 36.2 °F 30.42 in North 4.0 mph 10.0 mph 84 % 0.01 in
10:53 40.7 °F 36.2 °F 30.42 in WNW 1.0 mph 10.0 mph 84 % 0.01 in
10:58 40.7 °F 35.9 °F 30.43 in WNW 4.0 mph 10.0 mph 83 % 0.01 in
11:03 40.6 °F 36.1 °F 30.44 in NNE 3.0 mph 9.0 mph 84 % 0.01 in
11:08 40.6 °F 35.8 °F 30.43 in North 2.0 mph 9.0 mph 83 % 0.00 in
11:13 40.6 °F 35.8 °F 30.44 in NNE 2.0 mph 8.0 mph 83 % 0.00 in
11:18 40.7 °F 35.9 °F 30.44 in North 4.0 mph 8.0 mph 83 % 0.00 in
11:23 40.7 °F 35.3 °F 30.43 in NNE 2.0 mph 9.0 mph 81 % 0.00 in
11:28 40.8 °F 35.4 °F 30.43 in WNW 1.0 mph 9.0 mph 81 % 0.00 in
11:33 40.9 °F 35.5 °F 30.43 in WNW 4.0 mph 9.0 mph 81 % 0.00 in
11:38 40.9 °F 35.2 °F 30.43 in WNW 1.0 mph 9.0 mph 80 % 0.00 in
11:43 40.9 °F 35.2 °F 30.43 in North 1.0 mph 9.0 mph 80 % 0.00 in
11:48 41.0 °F 35.3 °F 30.44 in NW 1.0 mph 9.0 mph 80 % 0.00 in
11:53 41.1 °F 35.7 °F 30.45 in WNW 6.0 mph 10.0 mph 81 % 0.00 in
11:58 41.2 °F 35.2 °F 30.44 in North 3.0 mph 10.0 mph 79 % 0.00 in
12:03 41.3 °F 35.6 °F 30.44 in Calm   10.0 mph 80 % 0.00 in
12:08 41.6 °F 36.2 °F 30.43 in WNW 4.0 mph 10.0 mph 81 % 0.00 in
12:13 41.9 °F 35.9 °F 30.43 in North 1.0 mph 8.0 mph 79 % 0.00 in
12:18 42.4 °F 36.1 °F 30.43 in West 5.0 mph 8.0 mph 78 % 0.00 in
12:23 42.6 °F 35.6 °F 30.43 in NE 3.0 mph 8.0 mph 76 % 0.00 in
12:28 42.8 °F 35.5 °F 30.43 in NW 4.0 mph 8.0 mph 75 % 0.00 in
12:33 43.0 °F 35.3 °F 30.43 in NNE 1.0 mph 8.0 mph 74 % 0.00 in
12:38 43.0 °F 35.0 °F 30.43 in North 1.0 mph 8.0 mph 73 % 0.00 in
12:43 43.2 °F 34.5 °F 30.43 in WNW 6.0 mph 8.0 mph 71 % 0.00 in
12:48 43.5 °F 34.8 °F 30.43 in WSW 2.0 mph 8.0 mph 71 % 0.00 in
12:53 43.9 °F 34.8 °F 30.43 in NNE 4.0 mph 10.0 mph 70 % 0.00 in
12:58 44.1 °F 34.3 °F 30.44 in NW 4.0 mph 11.0 mph 68 % 0.00 in
13:03 44.4 °F 34.6 °F 30.44 in West 2.0 mph 11.0 mph 68 % 0.00 in
13:08 44.7 °F 34.5 °F 30.44 in North 1.0 mph 11.0 mph 67 % 0.00 in
13:13 45.0 °F 33.6 °F 30.45 in North 3.0 mph 11.0 mph 64 % 0.00 in
13:18 45.2 °F 34.6 °F 30.44 in NW 3.0 mph 8.0 mph 66 % 0.00 in
13:23 45.4 °F 34.0 °F 30.44 in WNW 1.0 mph 9.0 mph 64 % 0.00 in
13:28 45.8 °F 34.0 °F 30.45 in NNE 3.0 mph 9.0 mph 63 % 0.00 in
13:33 45.9 °F 33.7 °F 30.45 in NW 2.0 mph 9.0 mph 62 % 0.00 in
13:38 45.9 °F 33.3 °F 30.46 in Calm   9.0 mph 61 % 0.00 in
13:43 45.9 °F 32.8 °F 30.45 in NW 2.0 mph 7.0 mph 60 % 0.00 in
13:48 46.0 °F 32.9 °F 30.45 in SSW 5.0 mph 7.0 mph 60 % 0.00 in
13:53 46.0 °F 32.9 °F 30.44 in North 5.0 mph 7.0 mph 60 % 0.00 in
13:58 46.1 °F 32.1 °F 30.45 in WNW 2.0 mph 7.0 mph 58 % 0.00 in
14:03 46.4 °F 31.5 °F 30.45 in WNW 2.0 mph 9.0 mph 56 % 0.00 in
14:08 46.7 °F 32.3 °F 30.46 in NW 5.0 mph 9.0 mph 57 % 0.00 in
14:13 46.9 °F 31.1 °F 30.46 in Calm   9.0 mph 54 % 0.00 in
14:18 46.8 °F 31.5 °F 30.46 in WNW 3.0 mph 9.0 mph 55 % 0.00 in
14:23 46.8 °F 31.5 °F 30.46 in Calm   9.0 mph 55 % 0.00 in
14:28 46.7 °F 31.4 °F 30.46 in NW 4.0 mph 10.0 mph 55 % 0.00 in
14:33 46.9 °F 31.6 °F 30.46 in WNW 3.0 mph 10.0 mph 55 % 0.00 in
14:38 46.9 °F 32.0 °F 30.47 in North 1.0 mph 10.0 mph 56 % 0.00 in
14:43 47.1 °F 30.8 °F 30.47 in WNW 3.0 mph 10.0 mph 53 % 0.00 in
14:48 47.3 °F 30.5 °F 30.47 in NW 3.0 mph 10.0 mph 52 % 0.00 in
14:53 47.4 °F 29.7 °F 30.48 in NNE 3.0 mph 12.0 mph 50 % 0.00 in
14:58 47.3 °F 30.5 °F 30.48 in WNW 3.0 mph 12.0 mph 52 % 0.00 in
15:03 47.2 °F 30.0 °F 30.48 in NNE 3.0 mph 12.0 mph 51 % 0.00 in
15:08 46.9 °F 29.7 °F 30.48 in North 6.0 mph 12.0 mph 51 % 0.00 in
15:13 46.8 °F 30.1 °F 30.48 in WSW 1.0 mph 10.0 mph 52 % 0.00 in
15:18 46.7 °F 30.0 °F 30.49 in North 3.0 mph 10.0 mph 52 % 0.00 in
15:23 46.8 °F 30.6 °F 30.49 in North 3.0 mph 10.0 mph 53 % 0.00 in
15:28 47.0 °F 30.8 °F 30.49 in North 4.0 mph 10.0 mph 53 % 0.00 in
15:33 47.0 °F 30.3 °F 30.50 in North 1.0 mph 10.0 mph 52 % 0.00 in
15:38 47.0 °F 30.3 °F 30.50 in North 2.0 mph 7.0 mph 52 % 0.00 in
15:43 47.1 °F 30.4 °F 30.50 in NW 6.0 mph 8.0 mph 52 % 0.00 in
15:48 47.3 °F 29.0 °F 30.51 in North 1.0 mph 8.0 mph 49 % 0.00 in
15:53 47.2 °F 28.4 °F 30.51 in Calm   8.0 mph 48 % 0.00 in
15:58 47.0 °F 29.3 °F 30.51 in Calm   8.0 mph 50 % 0.00 in
16:03 46.9 °F 29.7 °F 30.51 in NW 5.0 mph 7.0 mph 51 % 0.00 in
16:08 46.8 °F 29.1 °F 30.52 in NW 3.0 mph 9.0 mph 50 % 0.00 in
16:13 46.8 °F 29.1 °F 30.51 in Calm   9.0 mph 50 % 0.01 in
16:18 46.9 °F 29.7 °F 30.52 in Calm   9.0 mph 51 % 0.01 in
16:23 47.1 °F 28.9 °F 30.52 in NNE 1.0 mph 9.0 mph 49 % 0.01 in
16:28 47.1 °F 28.9 °F 30.52 in Calm   8.0 mph 49 % 0.01 in
16:33 46.9 °F 28.7 °F 30.53 in NW 5.0 mph 8.0 mph 49 % 0.01 in
16:38 46.7 °F 29.0 °F 30.53 in WNW 6.0 mph 8.0 mph 50 % 0.01 in
16:43 46.5 °F 27.8 °F 30.54 in Calm   8.0 mph 48 % 0.01 in
16:48 46.4 °F 28.7 °F 30.54 in WNW 1.0 mph 8.0 mph 50 % 0.01 in
16:53 46.3 °F 28.1 °F 30.54 in NNE 2.0 mph 8.0 mph 49 % 0.01 in
16:58 46.2 °F 28.0 °F 30.54 in Calm   8.0 mph 49 % 0.01 in
17:03 46.1 °F 28.4 °F 30.54 in WNW 4.0 mph 6.0 mph 50 % 0.01 in
17:08 45.8 °F 28.2 °F 30.55 in Calm   6.0 mph 50 % 0.01 in
17:13 45.7 °F 28.6 °F 30.55 in Calm   6.0 mph 51 % 0.00 in
17:18 45.6 °F 28.5 °F 30.55 in Calm   6.0 mph 51 % 0.00 in
17:23 45.4 °F 28.3 °F 30.56 in Calm   6.0 mph 51 % 0.00 in
17:28 45.3 °F 28.2 °F 30.57 in Calm   4.0 mph 51 % 0.00 in
17:33 45.1 °F 28.0 °F 30.57 in Calm   4.0 mph 51 % 0.00 in
17:38 44.7 °F 28.1 °F 30.57 in Calm   4.0 mph 52 % 0.00 in
17:43 44.4 °F 27.9 °F 30.57 in WNW 1.0 mph 4.0 mph 52 % 0.00 in
17:48 44.0 °F 28.0 °F 30.57 in Calm   4.0 mph 53 % 0.00 in
17:53 43.7 °F 28.1 °F 30.57 in WNW 1.0 mph 4.0 mph 54 % 0.00 in
17:58 43.4 °F 27.9 °F 30.57 in Calm   4.0 mph 54 % 0.00 in
18:03 43.0 °F 28.0 °F 30.57 in Calm   4.0 mph 55 % 0.00 in
18:08 42.6 °F 28.0 °F 30.58 in Calm   2.0 mph 56 % 0.00 in
18:13 42.2 °F 28.5 °F 30.58 in Calm     58 % 0.00 in
18:18 41.8 °F 28.1 °F 30.58 in Calm   1.0 mph 58 % 0.00 in
18:23 41.5 °F 28.2 °F 30.59 in Calm   1.0 mph 59 % 0.00 in
18:28 41.2 °F 28.4 °F 30.59 in Calm   1.0 mph 60 % 0.00 in
18:33 40.9 °F 28.1 °F 30.60 in Calm   1.0 mph 60 % 0.00 in
18:38 40.6 °F 28.3 °F 30.60 in Calm   1.0 mph 61 % 0.00 in
18:43 40.3 °F 27.6 °F 30.61 in Calm   2.0 mph 60 % 0.00 in
18:48 40.2 °F 27.1 °F 30.61 in Calm   2.0 mph 59 % 0.00 in
18:53 40.2 °F 26.6 °F 30.61 in North 2.0 mph 5.0 mph 58 % 0.00 in
18:58 40.4 °F 26.0 °F 30.62 in Calm   5.0 mph 56 % 0.00 in
19:03 40.5 °F 26.1 °F 30.62 in NW 1.0 mph 5.0 mph 56 % 0.00 in
19:08 40.6 °F 25.7 °F 30.62 in Calm   5.0 mph 55 % 0.00 in
19:13 40.9 °F 25.1 °F 30.62 in NW 3.0 mph 5.0 mph 53 % 0.00 in
19:18 41.2 °F 24.9 °F 30.63 in Calm   5.0 mph 52 % 0.00 in
19:23 41.3 °F 25.0 °F 30.63 in Calm   5.0 mph 52 % 0.00 in
19:28 41.2 °F 24.9 °F 30.63 in Calm   5.0 mph 52 % 0.00 in
19:33 41.0 °F 24.7 °F 30.63 in North 2.0 mph 5.0 mph 52 % 0.00 in
19:38 40.9 °F 24.6 °F 30.63 in Calm   5.0 mph 52 % 0.00 in
19:43 40.7 °F 23.9 °F 30.63 in Calm   5.0 mph 51 % 0.00 in
19:48 40.6 °F 24.3 °F 30.63 in Calm   5.0 mph 52 % 0.00 in
19:53 40.5 °F 24.2 °F 30.64 in NW 1.0 mph 4.0 mph 52 % 0.00 in
19:58 40.3 °F 24.0 °F 30.64 in Calm   4.0 mph 52 % 0.00 in
20:03 40.2 °F 23.9 °F 30.64 in NW 4.0 mph 6.0 mph 52 % 0.00 in
20:08 40.2 °F 23.9 °F 30.64 in Calm   6.0 mph 52 % 0.00 in
20:13 40.2 °F 23.5 °F 30.65 in WNW 5.0 mph 6.0 mph 51 % 0.00 in
20:18 40.3 °F 23.1 °F 30.65 in Calm   6.0 mph 50 % 0.00 in
20:23 40.3 °F 23.6 °F 30.65 in Calm   6.0 mph 51 % 0.00 in
20:28 40.2 °F 23.5 °F 30.65 in Calm   6.0 mph 51 % 0.00 in
20:33 40.0 °F 23.8 °F 30.65 in Calm   4.0 mph 52 % 0.00 in
20:38 39.7 °F 24.0 °F 30.66 in Calm   3.0 mph 53 % 0.00 in
20:43 39.4 °F 23.7 °F 30.66 in Calm   1.0 mph 53 % 0.00 in
20:48 39.1 °F 23.8 °F 30.66 in Calm   1.0 mph 54 % 0.00 in
20:53 38.8 °F 24.0 °F 30.66 in Calm   1.0 mph 55 % 0.00 in
20:58 38.4 °F 24.5 °F 30.67 in Calm   1.0 mph 57 % 0.00 in
21:03 38.0 °F 24.5 °F 30.67 in Calm   1.0 mph 58 % 0.00 in
21:08 37.7 °F 24.3 °F 30.67 in Calm   1.0 mph 58 % 0.00 in
21:13 37.3 °F 23.5 °F 30.67 in Calm   1.0 mph 57 % 0.00 in
21:18 37.1 °F 23.7 °F 30.67 in Calm     58 % 0.00 in
21:23 36.9 °F 23.9 °F 30.67 in Calm     59 % 0.00 in
21:28 36.7 °F 24.2 °F 30.67 in Calm     60 % 0.00 in
21:33 36.5 °F 24.0 °F 30.68 in Calm     60 % 0.00 in
21:38 36.3 °F 24.2 °F 30.68 in Calm     61 % 0.00 in
21:43 36.1 °F 24.4 °F 30.68 in Calm     62 % 0.00 in
21:48 35.8 °F 24.5 °F 30.68 in Calm     63 % 0.00 in
21:53 35.5 °F 24.1 °F 30.69 in Calm   1.0 mph 63 % 0.00 in
21:58 35.3 °F 24.3 °F 30.69 in Calm   1.0 mph 64 % 0.00 in
22:03 35.1 °F 24.5 °F 30.69 in Calm   1.0 mph 65 % 0.00 in
22:08 34.8 °F 24.6 °F 30.69 in Calm   1.0 mph 66 % 0.00 in
22:13 34.6 °F 24.8 °F 30.69 in Calm     67 % 0.00 in
22:18 34.3 °F 25.5 °F 30.69 in Calm     70 % 0.00 in
22:23 34.0 °F 25.6 °F 30.69 in Calm     71 % 0.00 in
22:28 33.7 °F 25.3 °F 30.70 in Calm     71 % 0.00 in
22:33 33.4 °F 25.1 °F 30.70 in Calm     71 % 0.00 in
22:38 33.1 °F 24.8 °F 30.70 in Calm     71 % 0.00 in
22:43 32.9 °F 24.2 °F 30.70 in Calm     70 % 0.00 in
22:48 32.7 °F 24.4 °F 30.70 in Calm     71 % 0.00 in
22:53 32.6 °F 24.3 °F 30.71 in Calm     71 % 0.00 in
22:58 32.4 °F 24.4 °F 30.71 in Calm     72 % 0.00 in
23:03 32.4 °F 24.4 °F 30.71 in Calm     72 % 0.00 in
23:08 32.4 °F 24.4 °F 30.71 in Calm     72 % 0.00 in
23:13 32.3 °F 24.7 °F 30.71 in Calm     73 % 0.00 in
23:18 32.1 °F 24.5 °F 30.71 in Calm     73 % 0.00 in
23:23 32.0 °F 24.4 °F 30.71 in Calm     73 % 0.00 in
23:28 31.7 °F 24.1 °F 30.71 in Calm     73 % 0.00 in
23:33 31.6 °F 24.3 °F 30.71 in Calm     74 % 0.00 in
23:38 31.4 °F 24.1 °F 30.72 in Calm     74 % 0.00 in
23:43 31.2 °F 24.2 °F 30.72 in Calm     75 % 0.00 in
23:48 30.9 °F 24.3 °F 30.72 in Calm     76 % 0.00 in
23:53 30.8 °F 24.2 °F 30.73 in Calm     76 % 0.00 in
23:58 30.6 °F 24.3 °F 30.73 in Calm     77 % 0.00 in
MarylandWx.com
Compliments of Weather Underground - 6.5 mb